createdAt,value
2018-09-10T00:00:18.634Z,102180.98
2018-09-10T00:02:47.237Z,102178.19
2018-09-10T00:05:14.981Z,102180.98
2018-09-10T00:07:43.895Z,102179.73
2018-09-10T00:10:12.218Z,102178.86
2018-09-10T00:12:40.553Z,102183.55
2018-09-10T00:15:08.875Z,102183.62
2018-09-10T00:17:37.201Z,102179.77
2018-09-10T00:20:04.958Z,102179.60
2018-09-10T00:22:33.856Z,102176.00
2018-09-10T00:25:01.593Z,102173.50
2018-09-10T00:27:30.490Z,102172.95
2018-09-10T00:29:58.842Z,102169.00
2018-09-10T00:32:27.165Z,102167.71
2018-09-10T00:34:55.478Z,102167.23
2018-09-10T00:37:23.341Z,102166.75
2018-09-10T00:39:52.139Z,102165.63
2018-09-10T00:42:19.879Z,102165.11
2018-09-10T00:44:48.786Z,102168.03
2018-09-10T00:47:16.529Z,102165.14
2018-09-10T00:49:45.434Z,102166.11
2018-09-10T00:52:14.551Z,102162.06
2018-09-10T00:54:42.869Z,102163.53
2018-09-10T00:57:11.209Z,102162.89
2018-09-10T00:59:38.959Z,102162.19
2018-09-10T01:02:07.859Z,102161.36
2018-09-10T01:04:36.180Z,102160.27
2018-09-10T01:07:03.915Z,102159.78
2018-09-10T01:09:32.814Z,102155.98
2018-09-10T01:12:01.379Z,102159.14
2018-09-10T01:14:29.475Z,102154.61
2018-09-10T01:16:57.214Z,102154.06
2018-09-10T01:19:26.120Z,102153.88
2018-09-10T01:21:54.447Z,102154.48
2018-09-10T01:24:22.194Z,102153.58
2018-09-10T01:26:50.521Z,102149.34
2018-09-10T01:29:18.850Z,102147.99
2018-09-10T01:31:47.757Z,102145.13
2018-09-10T01:34:16.083Z,102147.61
2018-09-10T01:36:43.825Z,102148.95
2018-09-10T01:39:12.249Z,102146.67
2018-09-10T01:41:40.505Z,102145.45
2018-09-10T01:44:09.409Z,102143.62
2018-09-10T01:46:37.728Z,102143.20
2018-09-10T01:49:06.047Z,102143.81
2018-09-10T01:51:34.381Z,102143.33
2018-09-10T01:54:02.697Z,102139.77
2018-09-10T01:56:31.010Z,102139.54
2018-09-10T01:58:58.753Z,102140.73
2018-09-10T02:01:27.660Z,102141.98
2018-09-10T02:03:55.989Z,102140.58
2018-09-10T02:06:23.725Z,102139.45
2018-09-10T02:08:52.633Z,102136.14
2018-09-10T02:11:21.177Z,102131.55
2018-09-10T02:13:49.285Z,102132.25
2018-09-10T02:16:17.600Z,102127.33
2018-09-10T02:18:45.381Z,102129.36
2018-09-10T02:21:14.260Z,102126.41
2018-09-10T02:23:42.663Z,102123.55
2018-09-10T02:26:10.522Z,102127.59
2018-09-10T02:28:39.236Z,102127.02
2018-09-10T02:31:07.575Z,102124.38
2018-09-10T02:33:35.890Z,102117.87
2018-09-10T02:36:04.215Z,102117.98
2018-09-10T02:38:32.552Z,102116.02
2018-09-10T02:41:00.850Z,102117.66
2018-09-10T02:43:29.185Z,102116.95
2018-09-10T02:45:57.506Z,102114.84
2018-09-10T02:48:25.840Z,102113.13
2018-09-10T02:50:53.580Z,102112.30
2018-09-10T02:53:21.893Z,102110.80
2018-09-10T02:55:50.805Z,102116.38
2018-09-10T02:58:19.123Z,102112.14
2018-09-10T03:00:46.872Z,102113.07
2018-09-10T03:03:15.775Z,102110.75
2018-09-10T03:05:44.092Z,102116.50
2018-09-10T03:08:12.418Z,102118.52
2018-09-10T03:10:40.166Z,102123.56
2018-09-10T03:13:09.078Z,102123.12
2018-09-10T03:15:38.306Z,102115.77
2018-09-10T03:18:06.485Z,102116.12
2018-09-10T03:20:34.747Z,102116.41
2018-09-10T03:23:03.070Z,102114.87
2018-09-10T03:25:31.390Z,102112.91
2018-09-10T03:27:59.704Z,102114.42
2018-09-10T03:30:28.033Z,102113.91
2018-09-10T03:32:55.793Z,102111.63
2018-09-10T03:35:25.397Z,102110.73
2018-09-10T03:37:52.459Z,102105.88
2018-09-10T03:40:21.374Z,102105.24
2018-09-10T03:42:49.704Z,102105.69
2018-09-10T03:45:18.070Z,102106.23
2018-09-10T03:47:45.797Z,102110.00
2018-09-10T03:50:14.126Z,102111.63
2018-09-10T03:52:42.490Z,102112.41
2018-09-10T03:55:10.818Z,102112.30
2018-09-10T03:57:39.723Z,102109.00
2018-09-10T04:00:07.524Z,102108.98
2018-09-10T04:02:35.844Z,102109.44
2018-09-10T04:05:04.755Z,102107.77
2018-09-10T04:07:32.486Z,102104.23
2018-09-10T04:10:01.396Z,102100.77
2018-09-10T04:12:29.720Z,102101.45
2018-09-10T04:14:58.050Z,102099.30
2018-09-10T04:17:26.365Z,102098.75
2018-09-10T04:19:54.112Z,102100.13
2018-09-10T04:22:23.022Z,102099.23
2018-09-10T04:24:50.765Z,102100.06
2018-09-10T04:27:19.685Z,102100.09
2018-09-10T04:29:47.997Z,102102.83
2018-09-10T04:32:16.376Z,102105.97
2018-09-10T04:34:44.104Z,102103.98
2018-09-10T04:37:13.001Z,102104.65
2018-09-10T04:39:41.322Z,102104.71
2018-09-10T04:42:09.674Z,102103.20
2018-09-10T04:44:37.971Z,102107.16
2018-09-10T04:47:05.743Z,102107.61
2018-09-10T04:49:34.662Z,102104.76
2018-09-10T04:52:03.782Z,102103.86
2018-09-10T04:54:31.331Z,102103.41
2018-09-10T04:56:59.682Z,102105.86
2018-09-10T04:59:28.002Z,102107.45
2018-09-10T05:01:56.336Z,102115.69
2018-09-10T05:04:24.735Z,102108.84
2018-09-10T05:06:52.421Z,102116.58
2018-09-10T05:11:50.881Z,102119.21
2018-09-10T05:14:18.628Z,102116.45
2018-09-10T05:16:46.946Z,102112.55
2018-09-10T05:19:15.842Z,102112.52
2018-09-10T05:21:44.162Z,102114.83
2018-09-10T05:24:12.485Z,102112.31
2018-09-10T05:26:40.822Z,102113.92
2018-09-10T05:29:08.565Z,102111.28
2018-09-10T05:31:36.894Z,102110.56
2018-09-10T05:34:05.794Z,102110.94
2018-09-10T05:36:34.156Z,102110.43
2018-09-10T05:39:01.901Z,102111.91
2018-09-10T05:41:30.315Z,102107.21
2018-09-10T05:43:59.142Z,102106.18
2018-09-10T05:46:27.497Z,102103.99
2018-09-10T05:48:55.860Z,102107.94
2018-09-10T05:51:24.206Z,102111.09
2018-09-10T05:53:52.541Z,102114.47
2018-09-10T05:56:20.857Z,102117.84
2018-09-10T05:58:48.720Z,102117.22
2018-09-10T06:01:17.656Z,102118.89
2018-09-10T06:03:46.009Z,102114.08
2018-09-10T06:06:14.346Z,102113.49
2018-09-10T06:08:42.106Z,102118.30
2018-09-10T06:11:10.577Z,102117.37
2018-09-10T06:13:39.369Z,102118.06
2018-09-10T06:16:07.160Z,102117.23
2018-09-10T06:18:36.223Z,102119.91
2018-09-10T06:21:03.818Z,102114.88
2018-09-10T06:23:32.719Z,102112.54
2018-09-10T06:26:01.279Z,102113.86
2018-09-10T06:28:28.809Z,102112.28
2018-09-10T06:30:57.716Z,102113.67
2018-09-10T06:33:25.495Z,102110.66
2018-09-10T06:35:54.410Z,102110.84
2018-09-10T06:38:22.748Z,102109.64
2018-09-10T06:40:51.042Z,102107.72
2018-09-10T06:43:19.393Z,102107.19
2018-09-10T06:45:47.726Z,102107.64
2018-09-10T06:48:15.757Z,102104.95
2018-09-10T06:50:44.719Z,102101.31
2018-09-10T06:53:13.031Z,102106.83
2018-09-10T06:55:41.359Z,102105.73
2018-09-10T07:01:30.449Z,102105.76
2018-09-10T07:03:43.919Z,102105.34
2018-09-10T07:06:12.298Z,102102.60
2018-09-10T07:08:40.893Z,102098.58
2018-09-10T07:11:09.272Z,102100.80
2018-09-10T07:13:37.020Z,102098.88
2018-09-10T07:16:05.919Z,102096.48
2018-09-10T07:18:34.322Z,102091.46
2018-09-10T07:21:02.594Z,102090.52
2018-09-10T07:23:30.915Z,102088.48
2018-09-10T07:25:59.239Z,102081.77
2018-09-10T07:28:26.979Z,102079.84
2018-09-10T07:30:55.893Z,102076.42
2018-09-10T07:33:24.220Z,102077.65
2018-09-10T07:35:52.579Z,102074.53
2018-09-10T07:38:20.925Z,102073.96
2018-09-10T07:40:49.289Z,102072.37
2018-09-10T07:43:17.035Z,102072.17
2018-09-10T07:45:45.956Z,102073.66
2018-09-10T07:48:14.336Z,102070.89
2018-09-10T07:50:42.666Z,102071.24
2018-09-10T07:53:10.406Z,102069.02
2018-09-10T07:55:38.830Z,102065.20
2018-09-10T07:58:07.989Z,102062.19
2018-09-10T08:00:36.309Z,102059.40
2018-09-10T08:03:04.478Z,102061.17
2018-09-10T08:05:32.976Z,102060.07
2018-09-10T08:08:01.312Z,102059.04
2018-09-10T08:10:29.079Z,102059.64
2018-09-10T08:12:57.997Z,102056.06
2018-09-10T08:15:26.353Z,102051.44
2018-09-10T08:17:54.675Z,102044.20
2018-09-10T08:20:22.945Z,102043.10
2018-09-10T08:22:51.336Z,102045.01
2018-09-10T08:25:19.131Z,102045.62
2018-09-10T08:27:47.999Z,102044.49
2018-09-10T08:30:16.347Z,102038.29
2018-09-10T08:32:45.445Z,102042.67
2018-09-10T08:35:13.843Z,102044.89
2018-09-10T08:37:44.129Z,102040.54
2018-09-10T08:40:12.720Z,102042.20
2018-09-10T08:42:40.471Z,102034.20
2018-09-10T08:45:09.383Z,102032.05
2018-09-10T08:47:37.155Z,102026.83
2018-09-10T08:50:06.066Z,102030.05
2018-09-10T08:52:34.384Z,102034.13
2018-09-10T08:55:02.386Z,102028.66
2018-09-10T08:57:31.053Z,102025.69
2018-09-10T08:59:58.801Z,102025.83
2018-09-10T09:02:27.130Z,102028.28
2018-09-10T09:04:55.450Z,102026.88
2018-09-10T09:07:24.363Z,102024.78
2018-09-10T09:09:52.690Z,102020.06
2018-09-10T09:12:21.010Z,102017.87
2018-09-10T09:14:49.341Z,102022.16
2018-09-10T09:17:17.284Z,102024.66
2018-09-10T09:19:45.617Z,102025.67
2018-09-10T09:22:13.985Z,102023.87
2018-09-10T09:24:45.762Z,102021.40
2018-09-10T09:27:11.622Z,102018.62
2018-09-10T09:29:39.959Z,102014.00
2018-09-10T09:32:08.288Z,102018.34
2018-09-10T09:34:36.198Z,102010.88
2018-09-10T09:37:10.505Z,102002.36
2018-09-10T09:39:38.846Z,101998.33
2018-09-10T09:42:07.203Z,101994.02
2018-09-10T09:44:36.335Z,101992.99
2018-09-10T09:47:04.888Z,101992.63
2018-09-10T09:49:33.236Z,101998.82
2018-09-10T09:52:01.332Z,101991.84
2018-09-10T09:54:29.671Z,101998.89
2018-09-10T09:56:58.023Z,101991.26
2018-09-10T09:59:26.337Z,101988.41
2018-09-10T10:01:54.658Z,101988.05
2018-09-10T10:04:23.048Z,101988.87
2018-09-10T10:06:50.745Z,101988.86
2018-09-10T10:09:19.638Z,101984.58
2018-09-10T10:11:49.116Z,101980.83
2018-09-10T10:14:16.363Z,101983.91
2018-09-10T10:16:44.709Z,101978.09
2018-09-10T10:19:12.462Z,101970.27
2018-09-10T10:21:41.375Z,101972.19
2018-09-10T10:24:09.706Z,101971.85
2018-09-10T10:26:37.454Z,101967.62
2018-09-10T10:29:06.385Z,101964.50
2018-09-10T10:31:34.732Z,101963.17
2018-09-10T10:34:03.075Z,101966.73
2018-09-10T10:36:32.136Z,101965.95
2018-09-10T10:39:00.680Z,101957.77
2018-09-10T10:41:28.786Z,101952.77
2018-09-10T10:43:56.533Z,101943.86
2018-09-10T10:46:25.474Z,101947.56
2018-09-10T10:48:53.941Z,101933.17
2018-09-10T10:51:22.854Z,101933.88
2018-09-10T10:53:52.164Z,101935.09
2018-09-10T10:56:20.424Z,101927.45
2018-09-10T10:58:48.691Z,101934.71
2018-09-10T11:01:17.031Z,101928.39
2018-09-10T11:03:45.363Z,101926.55
2018-09-10T11:06:13.704Z,101925.05
2018-09-10T11:08:42.477Z,101921.43
2018-09-10T11:11:11.426Z,101921.59
2018-09-10T11:13:39.908Z,101915.82
2018-09-10T11:16:08.234Z,101923.45
2018-09-10T11:18:36.793Z,101905.77
2018-09-10T11:21:05.678Z,101908.88
2018-09-10T11:23:34.003Z,101905.47
2018-09-10T11:26:02.322Z,101910.23
2018-09-10T11:28:30.651Z,101908.47
2018-09-10T11:30:59.039Z,101909.70
2018-09-10T11:33:26.889Z,101911.30
2018-09-10T11:35:55.711Z,101912.23
2018-09-10T11:38:24.038Z,101901.88
2018-09-10T11:40:52.370Z,101918.22
2018-09-10T11:43:20.692Z,101908.43
2018-09-10T11:45:48.436Z,101906.32
2018-09-10T11:48:17.347Z,101898.05
2018-09-10T11:50:45.677Z,101899.02
2018-09-10T11:53:14.003Z,101904.37
2018-09-10T11:55:42.614Z,101905.79
2018-09-10T11:58:11.202Z,101902.77
2018-09-10T12:00:40.104Z,101903.87
2018-09-10T12:03:08.422Z,101900.48
2018-09-10T12:05:36.751Z,101896.72
2018-09-10T12:08:05.090Z,101895.23
2018-09-10T12:10:33.639Z,101904.77
2018-09-10T12:13:01.735Z,101898.57
2018-09-10T12:15:30.113Z,101888.37
2018-09-10T12:17:58.455Z,101897.13
2018-09-10T12:20:26.698Z,101891.25
2018-09-10T12:22:56.440Z,101894.92
2018-09-10T12:25:24.757Z,101890.55
2018-09-10T12:27:53.074Z,101889.00
2018-09-10T12:30:20.819Z,101891.06
2018-09-10T12:32:49.157Z,101891.48
2018-09-10T12:35:17.486Z,101889.50
2018-09-10T12:37:46.390Z,101888.59
2018-09-10T12:40:18.283Z,101885.05
2018-09-10T12:42:47.740Z,101880.00
2018-09-10T12:45:16.092Z,101871.91
2018-09-10T12:47:44.399Z,101876.53
2018-09-10T12:50:12.210Z,101867.35
2018-09-10T12:52:41.128Z,101864.75
2018-09-10T12:55:09.684Z,101860.75
2018-09-10T12:57:37.234Z,101859.06
2018-09-10T13:00:05.557Z,101858.41
2018-09-10T13:02:34.459Z,101854.28
2018-09-10T13:05:02.788Z,101851.23
2018-09-10T13:07:31.104Z,101848.49
2018-09-10T13:09:59.430Z,101854.11
2018-09-10T13:12:27.750Z,101849.12
2018-09-10T13:14:56.076Z,101845.41
2018-09-10T13:17:24.423Z,101847.42
2018-09-10T13:19:52.189Z,101842.85
2018-09-10T13:22:21.141Z,101844.20
2018-09-10T13:24:49.473Z,101848.80
2018-09-10T13:27:17.227Z,101844.20
2018-09-10T13:29:46.202Z,101842.20
2018-09-10T13:32:14.465Z,101837.17
2018-09-10T13:34:42.789Z,101832.81
2018-09-10T13:37:10.543Z,101842.29
2018-09-10T13:39:39.518Z,101841.16
2018-09-10T13:42:07.259Z,101839.50
2018-09-10T13:44:36.192Z,101837.55
2018-09-10T13:47:04.181Z,101834.55
2018-09-10T13:49:32.530Z,101836.75
2018-09-10T13:52:01.459Z,101838.13
2018-09-10T13:54:29.781Z,101836.92
2018-09-10T13:56:58.151Z,101833.88
2018-09-10T13:59:26.483Z,101833.76
2018-09-10T14:01:54.218Z,101830.03
2018-09-10T14:04:23.125Z,101829.11
2018-09-10T14:06:51.449Z,101826.84
2018-09-10T14:09:19.809Z,101829.02
2018-09-10T14:11:47.585Z,101825.48
2018-09-10T14:14:16.496Z,101830.77
2018-09-10T14:16:44.588Z,101826.87
2018-09-10T14:19:14.306Z,101826.56
2018-09-10T14:21:42.044Z,101826.95
2018-09-10T14:24:10.367Z,101832.91
2018-09-10T14:26:39.267Z,101831.62
2018-09-10T14:29:07.609Z,101836.48
2018-09-10T14:31:36.020Z,101837.00
2018-09-10T14:34:04.354Z,101838.99
2018-09-10T14:36:32.674Z,101833.06
2018-09-10T14:39:01.009Z,101831.59
2018-09-10T14:41:29.341Z,101835.68
2018-09-10T14:43:57.680Z,101839.89
2018-09-10T14:46:26.126Z,101838.75
2018-09-10T14:48:54.452Z,101836.41
2018-09-10T14:51:22.793Z,101838.55
2018-09-10T14:53:51.353Z,101840.31
2018-09-10T14:56:19.466Z,101840.19
2018-09-10T14:58:47.820Z,101837.76
2018-09-10T15:01:16.200Z,101838.50
2018-09-10T15:03:43.948Z,101838.16
2018-09-10T15:06:12.849Z,101838.30
2018-09-10T15:08:41.172Z,101842.19
2018-09-10T15:11:09.485Z,101845.14
2018-09-10T15:13:37.249Z,101843.19
2018-09-10T15:16:06.156Z,101847.23
2018-09-10T15:18:37.560Z,101841.49
2018-09-10T15:21:05.771Z,101843.78
2018-09-10T15:23:34.751Z,101842.64
2018-09-10T15:26:03.360Z,101841.62
2018-09-10T15:28:31.663Z,101837.56
2018-09-10T15:31:00.763Z,101839.26
2018-09-10T15:33:29.359Z,101842.00
2018-09-10T15:35:58.332Z,101840.31
2018-09-10T15:38:26.654Z,101841.50
2018-09-10T15:40:55.065Z,101843.84
2018-09-10T15:43:24.378Z,101843.59
2018-09-10T15:45:52.494Z,101844.94
2018-09-10T15:48:20.837Z,101844.98
2018-09-10T15:50:49.571Z,101844.16
2018-09-10T15:53:17.918Z,101840.14
2018-09-10T15:55:45.680Z,101842.03
2018-09-10T15:58:14.630Z,101840.87
2018-09-10T16:00:43.028Z,101838.09
2018-09-10T16:03:11.428Z,101839.05
2018-09-10T16:05:39.210Z,101836.69
2018-09-10T16:08:07.561Z,101837.17
2018-09-10T16:10:35.901Z,101836.27
2018-09-10T16:13:04.852Z,101832.64
2018-09-10T16:15:32.598Z,101836.19
2018-09-10T16:18:01.529Z,101831.08
2018-09-10T16:20:29.282Z,101830.27
2018-09-10T16:22:57.622Z,101826.67
2018-09-10T16:25:25.974Z,101825.56
2018-09-10T16:27:54.921Z,101825.71
2018-09-10T16:30:22.680Z,101826.83
2018-09-10T16:32:51.645Z,101824.14
2018-09-10T16:35:20.046Z,101820.88
2018-09-10T16:37:48.368Z,101830.19
2018-09-10T16:40:16.114Z,101828.00
2018-09-10T16:42:45.539Z,101823.88
2018-09-10T16:45:15.309Z,101821.97
2018-09-10T16:47:42.164Z,101821.77
2018-09-10T16:50:09.930Z,101820.77
2018-09-10T16:52:38.837Z,101816.48
2018-09-10T16:55:06.599Z,101817.73
2018-09-10T16:57:35.013Z,101816.00
2018-09-10T17:00:03.344Z,101814.20
2018-09-10T17:02:31.673Z,101818.16
2018-09-10T17:05:00.641Z,101818.89
2018-09-10T17:07:28.404Z,101823.41
2018-09-10T17:09:57.341Z,101819.40
2018-09-10T17:12:25.108Z,101824.83
2018-09-10T17:14:54.079Z,101821.48
2018-09-10T17:17:22.632Z,101821.97
2018-09-10T17:19:50.158Z,101819.88
2018-09-10T17:22:19.101Z,101821.73
2018-09-10T17:24:47.641Z,101826.11
2018-09-10T17:27:15.852Z,101823.48
2018-09-10T17:29:44.208Z,101821.33
2018-09-10T17:32:13.556Z,101826.08
2018-09-10T17:34:41.921Z,101823.34
2018-09-10T17:37:10.268Z,101823.67
2018-09-10T17:39:38.073Z,101821.31
2018-09-10T17:42:06.411Z,101815.46
2018-09-10T17:44:35.363Z,101812.24
2018-09-10T17:47:03.999Z,101821.08
2018-09-10T17:49:32.195Z,101826.78
2018-09-10T17:52:00.502Z,101830.37
2018-09-10T17:54:28.986Z,101822.92
2018-09-10T17:56:57.334Z,101823.94
2018-09-10T18:01:54.024Z,101833.78
2018-09-10T18:04:21.802Z,101834.78
2018-09-10T18:06:50.750Z,101843.53
2018-09-10T18:09:19.332Z,101841.94
2018-09-10T18:11:47.703Z,101843.83
2018-09-10T18:14:16.075Z,101848.06
2018-09-10T18:16:45.271Z,101851.41
2018-09-10T18:19:13.618Z,101846.17
2018-09-10T18:21:42.108Z,101846.64
2018-09-10T18:24:09.842Z,101845.69
2018-09-10T18:26:38.804Z,101851.38
2018-09-10T18:29:07.156Z,101848.20
2018-09-10T18:31:34.922Z,101841.75
2018-09-10T18:34:03.862Z,101844.43
2018-09-10T18:36:32.165Z,101848.53
2018-09-10T18:39:00.509Z,101839.59
2018-09-10T18:41:29.412Z,101834.04
2018-09-10T18:43:57.767Z,101827.55
2018-09-10T18:46:26.125Z,101825.36
2018-09-10T18:48:54.490Z,101824.48
2018-09-10T18:51:23.029Z,101816.13
2018-09-10T18:53:51.212Z,101818.54
2018-09-10T18:56:18.965Z,101815.77
2018-09-10T18:58:47.915Z,101816.91
2018-09-10T19:01:16.364Z,101823.83
2018-09-10T19:03:44.684Z,101824.34
2018-09-10T19:06:13.041Z,101819.45
2018-09-10T19:08:41.444Z,101819.50
2018-09-10T19:11:13.438Z,101822.67
2018-09-10T19:13:42.106Z,101824.88
2018-09-10T19:16:10.452Z,101826.09
2018-09-10T19:18:38.782Z,101830.42
2018-09-10T19:21:07.112Z,101824.44
2018-09-10T19:23:35.692Z,101821.59
2018-09-10T19:26:03.800Z,101824.20
2018-09-10T19:28:32.179Z,101822.48
2018-09-10T19:31:01.291Z,101820.05
2018-09-10T19:33:29.677Z,101821.91
2018-09-10T19:38:56.807Z,101817.83
2018-09-10T19:41:25.175Z,101819.22
2018-09-10T19:43:53.550Z,101817.46
2018-09-10T19:46:21.864Z,101815.66
2018-09-10T19:48:50.213Z,101811.17
2018-09-10T19:51:18.003Z,101808.05
2018-09-10T19:53:48.315Z,101804.34
2018-09-10T19:56:14.673Z,101809.78
2018-09-10T19:58:43.018Z,101804.62
2018-09-10T20:01:11.965Z,101805.22
2018-09-10T20:03:39.770Z,101805.37
2018-09-10T20:06:08.669Z,101804.28
2018-09-10T20:08:37.926Z,101805.63
2018-09-10T20:11:06.284Z,101806.84
2018-09-10T20:13:34.657Z,101806.41
2018-09-10T20:16:03.041Z,101804.61
2018-09-10T20:18:31.341Z,101802.80
2018-09-10T20:20:59.717Z,101801.41
2018-09-10T20:23:27.451Z,101800.64
2018-09-10T20:25:56.605Z,101795.73
2018-09-10T20:28:24.725Z,101788.41
2018-09-10T20:30:53.029Z,101785.50
2018-09-10T20:33:20.785Z,101785.41
2018-09-10T20:35:49.703Z,101784.84
2018-09-10T20:38:18.033Z,101781.95
2018-09-10T20:40:46.591Z,101777.66
2018-09-10T20:43:14.691Z,101776.92
2018-09-10T20:45:42.536Z,101774.92
2018-09-10T20:48:11.349Z,101774.64
2018-09-10T20:50:39.708Z,101775.67
2018-09-10T20:53:08.037Z,101773.83
2018-09-10T20:55:35.790Z,101772.44
2018-09-10T20:58:04.723Z,101768.83
2018-09-10T21:00:33.038Z,101765.25
2018-09-10T21:03:02.163Z,101771.23
2018-09-10T21:05:30.875Z,101766.58
2018-09-10T21:07:59.222Z,101763.59
2018-09-10T21:10:27.563Z,101765.26
2018-09-10T21:12:56.646Z,101764.02
2018-09-10T21:15:24.475Z,101762.98
2018-09-10T21:17:52.720Z,101761.40
2018-09-10T21:20:21.631Z,101758.25
2018-09-10T21:22:49.394Z,101756.93
2018-09-10T21:25:18.290Z,101761.12
2018-09-10T21:27:46.165Z,101758.33
2018-09-10T21:30:15.077Z,101752.37
2018-09-10T21:32:43.410Z,101752.47
2018-09-10T21:35:11.165Z,101747.54
2018-09-10T21:37:40.088Z,101745.16
2018-09-10T21:40:08.637Z,101749.67
2018-09-10T21:42:37.478Z,101755.13
2018-09-10T21:45:05.106Z,101763.99
2018-09-10T21:47:33.446Z,101781.16
2018-09-10T21:50:01.782Z,101774.75
2018-09-10T21:52:30.111Z,101780.06
2018-09-10T21:54:58.430Z,101784.39
2018-09-10T21:57:26.228Z,101783.45
2018-09-10T21:59:54.945Z,101797.72
2018-09-10T22:02:22.885Z,101801.79
2018-09-10T22:04:51.806Z,101806.63
2018-09-10T22:07:19.568Z,101817.09
2018-09-10T22:09:48.486Z,101821.15
2018-09-10T22:12:17.160Z,101813.59
2018-09-10T22:14:44.902Z,101814.57
2018-09-10T22:17:13.804Z,101823.52
2018-09-10T22:19:42.016Z,101827.41
2018-09-10T22:22:12.791Z,101829.94
2018-09-10T22:24:40.210Z,101823.81
2018-09-10T22:27:08.541Z,101828.62
2018-09-10T22:29:37.048Z,101834.73
2018-09-10T22:32:05.625Z,101833.48
2018-09-10T22:34:33.959Z,101837.19
2018-09-10T22:37:02.063Z,101842.64
2018-09-10T22:39:30.412Z,101830.17
2018-09-10T22:41:58.160Z,101836.36
2018-09-10T22:44:26.480Z,101832.67
2018-09-10T22:46:55.421Z,101829.21
2018-09-10T22:49:23.157Z,101818.59
2018-09-10T22:51:52.067Z,101820.16
2018-09-10T22:54:20.399Z,101815.58
2018-09-10T22:56:48.749Z,101813.84
2018-09-10T22:59:17.075Z,101811.96
2018-09-10T23:01:45.406Z,101802.75
2018-09-10T23:04:13.722Z,101786.43
2018-09-10T23:06:42.048Z,101780.55
2018-09-10T23:09:09.795Z,101770.28
2018-09-10T23:11:38.113Z,101768.70
2018-09-10T23:14:07.019Z,101735.41
2018-09-10T23:16:34.863Z,101704.59
2018-09-10T23:19:03.761Z,101714.63
2018-09-10T23:21:32.082Z,101779.33
2018-09-10T23:23:59.825Z,101751.30
2018-09-10T23:26:28.734Z,101767.05
2018-09-10T23:28:57.071Z,101769.78
2018-09-10T23:31:25.990Z,101768.74
2018-09-10T23:33:53.758Z,101776.02
2018-09-10T23:36:22.653Z,101770.31
2018-09-10T23:38:50.967Z,101761.19
2018-09-10T23:41:19.315Z,101752.37
2018-09-10T23:43:47.643Z,101753.52
2018-09-10T23:46:15.396Z,101751.82
2018-09-10T23:48:44.304Z,101758.23
2018-09-10T23:51:12.051Z,101766.56
2018-09-10T23:53:40.853Z,101765.13
2018-09-10T23:56:09.286Z,101763.06
2018-09-10T23:58:37.041Z,101770.08
